sensor_id;sensor_type;location;lat;lon;timestamp;P1;durP1;ratioP1;P2;durP2;ratioP2
22080;SDS011;11207;59.512;18.050;2022-12-07T00:01:12;10.30;;;6.80;;
22080;SDS011;11207;59.512;18.050;2022-12-07T00:03:40;9.53;;;7.70;;
22080;SDS011;11207;59.512;18.050;2022-12-07T00:06:08;12.30;;;7.80;;
22080;SDS011;11207;59.512;18.050;2022-12-07T00:08:36;11.30;;;7.33;;
22080;SDS011;11207;59.512;18.050;2022-12-07T00:11:03;11.63;;;8.50;;
22080;SDS011;11207;59.512;18.050;2022-12-07T00:13:31;11.10;;;8.43;;
22080;SDS011;11207;59.512;18.050;2022-12-07T00:16:05;10.87;;;8.03;;
22080;SDS011;11207;59.512;18.050;2022-12-07T00:18:35;13.03;;;8.60;;
22080;SDS011;11207;59.512;18.050;2022-12-07T00:21:02;11.80;;;8.40;;
22080;SDS011;11207;59.512;18.050;2022-12-07T00:23:32;12.07;;;8.13;;
22080;SDS011;11207;59.512;18.050;2022-12-07T00:26:09;11.40;;;8.07;;
22080;SDS011;11207;59.512;18.050;2022-12-07T00:28:39;10.87;;;7.87;;
22080;SDS011;11207;59.512;18.050;2022-12-07T00:31:07;11.03;;;7.63;;
22080;SDS011;11207;59.512;18.050;2022-12-07T00:33:35;10.23;;;7.17;;
22080;SDS011;11207;59.512;18.050;2022-12-07T00:36:02;11.40;;;7.23;;
22080;SDS011;11207;59.512;18.050;2022-12-07T00:38:30;10.57;;;7.53;;
22080;SDS011;11207;59.512;18.050;2022-12-07T00:40:57;12.57;;;7.43;;
22080;SDS011;11207;59.512;18.050;2022-12-07T00:43:24;9.57;;;6.60;;
22080;SDS011;11207;59.512;18.050;2022-12-07T00:45:49;9.50;;;6.70;;
22080;SDS011;11207;59.512;18.050;2022-12-07T00:48:15;8.83;;;6.93;;
22080;SDS011;11207;59.512;18.050;2022-12-07T00:50:41;8.23;;;6.70;;
22080;SDS011;11207;59.512;18.050;2022-12-07T00:53:06;7.87;;;6.87;;
22080;SDS011;11207;59.512;18.050;2022-12-07T00:55:33;6.93;;;6.23;;
22080;SDS011;11207;59.512;18.050;2022-12-07T00:57:59;9.33;;;6.47;;
22080;SDS011;11207;59.512;18.050;2022-12-07T01:00:24;8.40;;;6.60;;
22080;SDS011;11207;59.512;18.050;2022-12-07T01:02:50;10.00;;;6.73;;
22080;SDS011;11207;59.512;18.050;2022-12-07T01:05:16;8.10;;;6.30;;
22080;SDS011;11207;59.512;18.050;2022-12-07T01:07:41;7.87;;;6.50;;
22080;SDS011;11207;59.512;18.050;2022-12-07T01:10:07;7.30;;;6.00;;
22080;SDS011;11207;59.512;18.050;2022-12-07T01:12:33;8.30;;;6.10;;
22080;SDS011;11207;59.512;18.050;2022-12-07T01:14:59;14.17;;;6.73;;
22080;SDS011;11207;59.512;18.050;2022-12-07T01:17:24;9.40;;;6.67;;
22080;SDS011;11207;59.512;18.050;2022-12-07T01:19:53;8.07;;;6.40;;
22080;SDS011;11207;59.512;18.050;2022-12-07T01:22:19;6.83;;;6.13;;
22080;SDS011;11207;59.512;18.050;2022-12-07T01:24:44;11.37;;;7.60;;
22080;SDS011;11207;59.512;18.050;2022-12-07T01:27:11;9.20;;;6.50;;
22080;SDS011;11207;59.512;18.050;2022-12-07T01:29:38;12.33;;;6.80;;
22080;SDS011;11207;59.512;18.050;2022-12-07T01:32:04;11.30;;;7.10;;
22080;SDS011;11207;59.512;18.050;2022-12-07T01:34:29;8.43;;;6.57;;
22080;SDS011;11207;59.512;18.050;2022-12-07T01:36:55;7.77;;;6.67;;
22080;SDS011;11207;59.512;18.050;2022-12-07T01:39:21;10.27;;;7.10;;
22080;SDS011;11207;59.512;18.050;2022-12-07T01:41:47;9.20;;;7.33;;
22080;SDS011;11207;59.512;18.050;2022-12-07T01:49:23;10.63;;;6.50;;
22080;SDS011;11207;59.512;18.050;2022-12-07T01:51:54;7.53;;;6.77;;
22080;SDS011;11207;59.512;18.050;2022-12-07T01:54:32;7.17;;;6.00;;
22080;SDS011;11207;59.512;18.050;2022-12-07T01:56:59;11.60;;;7.30;;
22080;SDS011;11207;59.512;18.050;2022-12-07T01:59:25;10.30;;;6.67;;
22080;SDS011;11207;59.512;18.050;2022-12-07T02:01:52;8.27;;;6.60;;
22080;SDS011;11207;59.512;18.050;2022-12-07T02:04:19;8.10;;;6.33;;
22080;SDS011;11207;59.512;18.050;2022-12-07T02:06:45;10.40;;;6.57;;
22080;SDS011;11207;59.512;18.050;2022-12-07T02:09:12;8.23;;;6.13;;
22080;SDS011;11207;59.512;18.050;2022-12-07T02:11:38;7.63;;;5.97;;
22080;SDS011;11207;59.512;18.050;2022-12-07T02:14:05;8.23;;;6.17;;
22080;SDS011;11207;59.512;18.050;2022-12-07T02:21:58;8.77;;;6.43;;
22080;SDS011;11207;59.512;18.050;2022-12-07T02:24:53;7.03;;;6.33;;
22080;SDS011;11207;59.512;18.050;2022-12-07T02:30:03;9.17;;;6.40;;
22080;SDS011;11207;59.512;18.050;2022-12-07T02:35:43;7.70;;;6.10;;
22080;SDS011;11207;59.512;18.050;2022-12-07T02:38:18;10.73;;;6.97;;
22080;SDS011;11207;59.512;18.050;2022-12-07T02:40:59;10.83;;;6.60;;
22080;SDS011;11207;59.512;18.050;2022-12-07T02:43:44;7.87;;;6.23;;
22080;SDS011;11207;59.512;18.050;2022-12-07T02:46:14;8.50;;;6.23;;
22080;SDS011;11207;59.512;18.050;2022-12-07T02:48:55;9.97;;;6.40;;
22080;SDS011;11207;59.512;18.050;2022-12-07T02:51:24;7.10;;;5.90;;
22080;SDS011;11207;59.512;18.050;2022-12-07T02:53:50;10.10;;;6.73;;
22080;SDS011;11207;59.512;18.050;2022-12-07T03:04:06;7.60;;;5.87;;
22080;SDS011;11207;59.512;18.050;2022-12-07T03:06:43;8.90;;;6.17;;
22080;SDS011;11207;59.512;18.050;2022-12-07T03:09:27;6.53;;;5.73;;
22080;SDS011;11207;59.512;18.050;2022-12-07T03:12:05;6.60;;;5.60;;
22080;SDS011;11207;59.512;18.050;2022-12-07T03:14:38;8.03;;;5.70;;
22080;SDS011;11207;59.512;18.050;2022-12-07T03:17:16;5.87;;;5.27;;
22080;SDS011;11207;59.512;18.050;2022-12-07T03:19:50;9.97;;;6.07;;
22080;SDS011;11207;59.512;18.050;2022-12-07T03:22:19;8.77;;;6.13;;
22080;SDS011;11207;59.512;18.050;2022-12-07T03:24:57;7.57;;;5.70;;
22080;SDS011;11207;59.512;18.050;2022-12-07T03:27:27;10.43;;;6.00;;
22080;SDS011;11207;59.512;18.050;2022-12-07T03:35:21;7.67;;;6.03;;
22080;SDS011;11207;59.512;18.050;2022-12-07T03:38:22;8.93;;;5.30;;
22080;SDS011;11207;59.512;18.050;2022-12-07T03:41:07;7.57;;;5.33;;
22080;SDS011;11207;59.512;18.050;2022-12-07T03:43:36;7.13;;;5.67;;
22080;SDS011;11207;59.512;18.050;2022-12-07T03:48:57;8.37;;;5.57;;
22080;SDS011;11207;59.512;18.050;2022-12-07T03:54:37;7.83;;;5.40;;
22080;SDS011;11207;59.512;18.050;2022-12-07T03:57:09;7.07;;;5.60;;
22080;SDS011;11207;59.512;18.050;2022-12-07T03:59:37;6.80;;;5.60;;
22080;SDS011;11207;59.512;18.050;2022-12-07T04:02:04;6.57;;;5.73;;
22080;SDS011;11207;59.512;18.050;2022-12-07T04:04:31;7.03;;;5.30;;
22080;SDS011;11207;59.512;18.050;2022-12-07T04:06:58;7.67;;;5.63;;
22080;SDS011;11207;59.512;18.050;2022-12-07T04:09:24;6.33;;;5.67;;
22080;SDS011;11207;59.512;18.050;2022-12-07T04:11:53;5.97;;;5.37;;
22080;SDS011;11207;59.512;18.050;2022-12-07T04:14:19;10.73;;;6.00;;
22080;SDS011;11207;59.512;18.050;2022-12-07T04:16:51;7.27;;;5.30;;
22080;SDS011;11207;59.512;18.050;2022-12-07T04:19:22;8.63;;;6.03;;
22080;SDS011;11207;59.512;18.050;2022-12-07T04:21:50;5.63;;;5.03;;
22080;SDS011;11207;59.512;18.050;2022-12-07T04:24:18;10.10;;;5.40;;
22080;SDS011;11207;59.512;18.050;2022-12-07T04:26:44;7.83;;;5.40;;
22080;SDS011;11207;59.512;18.050;2022-12-07T04:29:11;7.23;;;5.97;;
22080;SDS011;11207;59.512;18.050;2022-12-07T04:31:37;6.10;;;5.50;;
22080;SDS011;11207;59.512;18.050;2022-12-07T04:34:03;9.23;;;5.90;;
22080;SDS011;11207;59.512;18.050;2022-12-07T04:36:30;6.20;;;5.50;;
22080;SDS011;11207;59.512;18.050;2022-12-07T04:38:56;5.93;;;5.30;;
22080;SDS011;11207;59.512;18.050;2022-12-07T04:41:22;6.40;;;5.67;;
22080;SDS011;11207;59.512;18.050;2022-12-07T04:44:01;6.60;;;5.80;;
22080;SDS011;11207;59.512;18.050;2022-12-07T04:46:30;7.10;;;6.00;;
22080;SDS011;11207;59.512;18.050;2022-12-07T04:48:56;6.20;;;5.60;;
22080;SDS011;11207;59.512;18.050;2022-12-07T04:51:24;6.00;;;5.50;;
22080;SDS011;11207;59.512;18.050;2022-12-07T04:53:51;6.43;;;5.50;;
22080;SDS011;11207;59.512;18.050;2022-12-07T04:56:17;7.87;;;5.60;;
22080;SDS011;11207;59.512;18.050;2022-12-07T04:58:44;5.97;;;5.30;;
22080;SDS011;11207;59.512;18.050;2022-12-07T05:01:11;6.87;;;6.10;;
22080;SDS011;11207;59.512;18.050;2022-12-07T05:03:37;6.50;;;5.83;;
22080;SDS011;11207;59.512;18.050;2022-12-07T05:06:04;6.07;;;5.40;;
22080;SDS011;11207;59.512;18.050;2022-12-07T05:08:30;6.50;;;5.90;;
22080;SDS011;11207;59.512;18.050;2022-12-07T05:10:56;7.20;;;6.17;;
22080;SDS011;11207;59.512;18.050;2022-12-07T05:13:25;7.07;;;5.77;;
22080;SDS011;11207;59.512;18.050;2022-12-07T05:15:50;6.23;;;5.50;;
22080;SDS011;11207;59.512;18.050;2022-12-07T05:18:16;5.70;;;5.20;;
22080;SDS011;11207;59.512;18.050;2022-12-07T05:20:42;7.50;;;5.97;;
22080;SDS011;11207;59.512;18.050;2022-12-07T05:23:09;6.50;;;5.90;;
22080;SDS011;11207;59.512;18.050;2022-12-07T05:25:35;6.10;;;5.50;;
22080;SDS011;11207;59.512;18.050;2022-12-07T05:28:01;6.80;;;5.70;;
22080;SDS011;11207;59.512;18.050;2022-12-07T05:30:27;7.47;;;5.97;;
22080;SDS011;11207;59.512;18.050;2022-12-07T05:32:53;7.63;;;6.47;;
22080;SDS011;11207;59.512;18.050;2022-12-07T05:35:19;7.93;;;6.33;;
22080;SDS011;11207;59.512;18.050;2022-12-07T05:37:45;9.20;;;6.83;;
22080;SDS011;11207;59.512;18.050;2022-12-07T05:40:11;9.63;;;6.43;;
22080;SDS011;11207;59.512;18.050;2022-12-07T05:42:38;8.13;;;5.70;;
22080;SDS011;11207;59.512;18.050;2022-12-07T05:45:04;5.80;;;5.30;;
22080;SDS011;11207;59.512;18.050;2022-12-07T05:47:31;10.63;;;6.10;;
22080;SDS011;11207;59.512;18.050;2022-12-07T05:49:56;8.50;;;5.60;;
22080;SDS011;11207;59.512;18.050;2022-12-07T05:52:22;7.77;;;5.33;;
22080;SDS011;11207;59.512;18.050;2022-12-07T05:54:53;8.50;;;5.43;;
22080;SDS011;11207;59.512;18.050;2022-12-07T05:57:19;6.37;;;5.60;;
22080;SDS011;11207;59.512;18.050;2022-12-07T05:59:45;5.90;;;5.30;;
22080;SDS011;11207;59.512;18.050;2022-12-07T06:02:11;6.37;;;5.50;;
22080;SDS011;11207;59.512;18.050;2022-12-07T06:04:40;7.70;;;5.50;;
22080;SDS011;11207;59.512;18.050;2022-12-07T06:07:07;6.13;;;5.47;;
22080;SDS011;11207;59.512;18.050;2022-12-07T06:09:33;8.47;;;5.47;;
22080;SDS011;11207;59.512;18.050;2022-12-07T06:12:00;6.53;;;5.13;;
22080;SDS011;11207;59.512;18.050;2022-12-07T06:14:44;7.73;;;5.63;;
22080;SDS011;11207;59.512;18.050;2022-12-07T06:17:10;8.37;;;4.90;;
22080;SDS011;11207;59.512;18.050;2022-12-07T06:19:37;5.60;;;5.10;;
22080;SDS011;11207;59.512;18.050;2022-12-07T06:22:03;6.33;;;5.30;;
22080;SDS011;11207;59.512;18.050;2022-12-07T06:24:30;9.40;;;5.83;;
22080;SDS011;11207;59.512;18.050;2022-12-07T06:26:57;7.90;;;5.30;;
22080;SDS011;11207;59.512;18.050;2022-12-07T06:29:22;7.90;;;5.10;;
22080;SDS011;11207;59.512;18.050;2022-12-07T06:31:48;5.97;;;5.40;;
22080;SDS011;11207;59.512;18.050;2022-12-07T06:34:15;8.53;;;5.60;;
22080;SDS011;11207;59.512;18.050;2022-12-07T06:36:42;7.23;;;5.53;;
22080;SDS011;11207;59.512;18.050;2022-12-07T06:39:09;6.00;;;5.40;;
22080;SDS011;11207;59.512;18.050;2022-12-07T06:41:36;9.70;;;5.47;;
22080;SDS011;11207;59.512;18.050;2022-12-07T06:44:02;9.17;;;5.27;;
22080;SDS011;11207;59.512;18.050;2022-12-07T06:46:32;6.83;;;5.70;;
22080;SDS011;11207;59.512;18.050;2022-12-07T06:48:57;10.53;;;5.23;;
22080;SDS011;11207;59.512;18.050;2022-12-07T06:51:23;5.90;;;5.37;;
22080;SDS011;11207;59.512;18.050;2022-12-07T06:53:49;6.57;;;5.07;;
22080;SDS011;11207;59.512;18.050;2022-12-07T06:56:14;5.83;;;5.20;;
22080;SDS011;11207;59.512;18.050;2022-12-07T06:58:40;5.80;;;5.20;;
22080;SDS011;11207;59.512;18.050;2022-12-07T07:01:10;8.80;;;5.53;;
22080;SDS011;11207;59.512;18.050;2022-12-07T07:03:37;5.67;;;5.17;;
22080;SDS011;11207;59.512;18.050;2022-12-07T07:06:03;5.40;;;5.00;;
22080;SDS011;11207;59.512;18.050;2022-12-07T07:08:29;6.10;;;5.43;;
22080;SDS011;11207;59.512;18.050;2022-12-07T07:10:55;9.63;;;5.30;;
22080;SDS011;11207;59.512;18.050;2022-12-07T07:13:21;5.97;;;5.40;;
22080;SDS011;11207;59.512;18.050;2022-12-07T07:15:47;7.63;;;5.40;;
22080;SDS011;11207;59.512;18.050;2022-12-07T07:18:12;8.93;;;4.83;;
22080;SDS011;11207;59.512;18.050;2022-12-07T07:20:38;7.07;;;4.90;;
22080;SDS011;11207;59.512;18.050;2022-12-07T07:23:04;5.73;;;5.20;;
22080;SDS011;11207;59.512;18.050;2022-12-07T07:25:31;6.93;;;4.97;;
22080;SDS011;11207;59.512;18.050;2022-12-07T07:27:57;5.80;;;5.20;;
22080;SDS011;11207;59.512;18.050;2022-12-07T07:30:23;5.53;;;4.90;;
22080;SDS011;11207;59.512;18.050;2022-12-07T07:32:48;6.67;;;5.20;;
22080;SDS011;11207;59.512;18.050;2022-12-07T07:35:14;8.43;;;5.27;;
22080;SDS011;11207;59.512;18.050;2022-12-07T07:37:40;5.10;;;4.60;;
22080;SDS011;11207;59.512;18.050;2022-12-07T07:40:07;8.87;;;4.83;;
22080;SDS011;11207;59.512;18.050;2022-12-07T07:42:33;5.50;;;4.90;;
22080;SDS011;11207;59.512;18.050;2022-12-07T07:44:59;5.03;;;4.63;;
22080;SDS011;11207;59.512;18.050;2022-12-07T07:47:24;7.73;;;5.13;;
22080;SDS011;11207;59.512;18.050;2022-12-07T07:49:52;5.87;;;5.20;;
22080;SDS011;11207;59.512;18.050;2022-12-07T07:52:18;6.07;;;5.10;;
22080;SDS011;11207;59.512;18.050;2022-12-07T07:54:44;7.50;;;5.00;;
22080;SDS011;11207;59.512;18.050;2022-12-07T07:57:09;8.77;;;5.20;;
22080;SDS011;11207;59.512;18.050;2022-12-07T07:59:35;5.57;;;4.93;;
22080;SDS011;11207;59.512;18.050;2022-12-07T08:02:00;5.63;;;4.77;;
22080;SDS011;11207;59.512;18.050;2022-12-07T08:04:26;10.57;;;4.87;;
22080;SDS011;11207;59.512;18.050;2022-12-07T08:06:52;5.07;;;4.67;;
22080;SDS011;11207;59.512;18.050;2022-12-07T08:09:17;7.23;;;5.27;;
22080;SDS011;11207;59.512;18.050;2022-12-07T08:11:43;5.23;;;4.73;;
22080;SDS011;11207;59.512;18.050;2022-12-07T08:14:10;9.70;;;5.17;;
22080;SDS011;11207;59.512;18.050;2022-12-07T08:16:36;6.97;;;4.97;;
22080;SDS011;11207;59.512;18.050;2022-12-07T08:19:04;7.73;;;5.70;;
22080;SDS011;11207;59.512;18.050;2022-12-07T08:21:30;6.57;;;5.20;;
22080;SDS011;11207;59.512;18.050;2022-12-07T08:23:56;6.23;;;5.30;;
22080;SDS011;11207;59.512;18.050;2022-12-07T08:26:22;6.37;;;5.77;;
22080;SDS011;11207;59.512;18.050;2022-12-07T08:28:48;7.87;;;5.57;;
22080;SDS011;11207;59.512;18.050;2022-12-07T08:31:17;7.30;;;5.83;;
22080;SDS011;11207;59.512;18.050;2022-12-07T08:33:46;10.57;;;6.03;;
22080;SDS011;11207;59.512;18.050;2022-12-07T08:36:13;8.53;;;6.17;;
22080;SDS011;11207;59.512;18.050;2022-12-07T08:38:40;6.27;;;5.60;;
22080;SDS011;11207;59.512;18.050;2022-12-07T08:41:06;6.60;;;5.57;;
22080;SDS011;11207;59.512;18.050;2022-12-07T08:43:33;5.97;;;5.40;;
22080;SDS011;11207;59.512;18.050;2022-12-07T08:48:27;9.17;;;6.07;;
22080;SDS011;11207;59.512;18.050;2022-12-07T08:50:53;7.00;;;6.30;;
22080;SDS011;11207;59.512;18.050;2022-12-07T08:53:19;8.00;;;6.10;;
22080;SDS011;11207;59.512;18.050;2022-12-07T08:55:45;7.07;;;5.63;;
22080;SDS011;11207;59.512;18.050;2022-12-07T08:58:11;8.80;;;6.57;;
22080;SDS011;11207;59.512;18.050;2022-12-07T09:00:37;13.90;;;6.63;;
22080;SDS011;11207;59.512;18.050;2022-12-07T09:03:02;8.47;;;6.50;;
22080;SDS011;11207;59.512;18.050;2022-12-07T09:05:28;12.67;;;7.27;;
22080;SDS011;11207;59.512;18.050;2022-12-07T09:07:55;9.73;;;7.20;;
22080;SDS011;11207;59.512;18.050;2022-12-07T09:10:22;7.73;;;6.47;;
22080;SDS011;11207;59.512;18.050;2022-12-07T09:12:48;8.43;;;6.90;;
22080;SDS011;11207;59.512;18.050;2022-12-07T09:15:14;9.60;;;6.63;;
22080;SDS011;11207;59.512;18.050;2022-12-07T09:17:40;8.63;;;6.57;;
22080;SDS011;11207;59.512;18.050;2022-12-07T09:20:05;8.57;;;6.53;;
22080;SDS011;11207;59.512;18.050;2022-12-07T09:22:31;6.80;;;6.10;;
22080;SDS011;11207;59.512;18.050;2022-12-07T09:24:58;8.37;;;6.53;;
22080;SDS011;11207;59.512;18.050;2022-12-07T09:27:24;5.93;;;5.37;;
22080;SDS011;11207;59.512;18.050;2022-12-07T09:29:49;10.30;;;5.90;;
22080;SDS011;11207;59.512;18.050;2022-12-07T09:32:17;6.60;;;5.53;;
22080;SDS011;11207;59.512;18.050;2022-12-07T09:34:43;8.43;;;5.67;;
22080;SDS011;11207;59.512;18.050;2022-12-07T09:37:09;6.17;;;5.50;;
22080;SDS011;11207;59.512;18.050;2022-12-07T09:39:37;6.97;;;5.40;;
22080;SDS011;11207;59.512;18.050;2022-12-07T09:42:03;5.70;;;5.20;;
22080;SDS011;11207;59.512;18.050;2022-12-07T09:44:30;7.70;;;5.33;;
22080;SDS011;11207;59.512;18.050;2022-12-07T09:46:56;8.97;;;5.13;;
22080;SDS011;11207;59.512;18.050;2022-12-07T09:49:24;7.07;;;5.43;;
22080;SDS011;11207;59.512;18.050;2022-12-07T09:52:28;5.83;;;5.20;;
22080;SDS011;11207;59.512;18.050;2022-12-07T09:54:51;13.20;;;5.30;;
22080;SDS011;11207;59.512;18.050;2022-12-07T10:00:17;5.83;;;5.10;;
22080;SDS011;11207;59.512;18.050;2022-12-07T10:02:47;7.83;;;5.00;;
22080;SDS011;11207;59.512;18.050;2022-12-07T10:05:20;7.80;;;4.90;;
22080;SDS011;11207;59.512;18.050;2022-12-07T10:07:54;7.27;;;5.13;;
22080;SDS011;11207;59.512;18.050;2022-12-07T10:10:33;7.10;;;5.00;;
22080;SDS011;11207;59.512;18.050;2022-12-07T10:13:07;5.53;;;5.03;;
22080;SDS011;11207;59.512;18.050;2022-12-07T10:23:34;6.13;;;5.27;;
22080;SDS011;11207;59.512;18.050;2022-12-07T10:26:18;8.07;;;4.90;;
22080;SDS011;11207;59.512;18.050;2022-12-07T10:28:47;11.50;;;5.17;;
22080;SDS011;11207;59.512;18.050;2022-12-07T10:31:17;6.33;;;4.40;;
22080;SDS011;11207;59.512;18.050;2022-12-07T10:38:49;11.00;;;7.20;;
22080;SDS011;11207;59.512;18.050;2022-12-07T10:41:23;7.17;;;5.73;;
22080;SDS011;11207;59.512;18.050;2022-12-07T10:43:50;5.43;;;4.93;;
22080;SDS011;11207;59.512;18.050;2022-12-07T10:46:25;5.10;;;4.70;;
22080;SDS011;11207;59.512;18.050;2022-12-07T10:52:23;6.27;;;5.00;;
22080;SDS011;11207;59.512;18.050;2022-12-07T10:54:57;5.63;;;5.03;;
22080;SDS011;11207;59.512;18.050;2022-12-07T11:00:18;5.60;;;4.83;;
22080;SDS011;11207;59.512;18.050;2022-12-07T11:11:49;7.30;;;4.90;;
22080;SDS011;11207;59.512;18.050;2022-12-07T11:16:51;6.30;;;4.70;;
22080;SDS011;11207;59.512;18.050;2022-12-07T11:19:49;6.40;;;5.07;;
22080;SDS011;11207;59.512;18.050;2022-12-07T11:22:33;8.20;;;5.30;;
22080;SDS011;11207;59.512;18.050;2022-12-07T11:25:20;5.67;;;4.33;;
22080;SDS011;11207;59.512;18.050;2022-12-07T11:33:39;6.40;;;4.83;;
22080;SDS011;11207;59.512;18.050;2022-12-07T11:36:16;4.93;;;4.50;;
22080;SDS011;11207;59.512;18.050;2022-12-07T11:38:57;6.33;;;4.77;;
22080;SDS011;11207;59.512;18.050;2022-12-07T11:41:32;4.90;;;4.47;;
22080;SDS011;11207;59.512;18.050;2022-12-07T11:44:05;9.10;;;5.30;;
22080;SDS011;11207;59.512;18.050;2022-12-07T11:46:58;6.30;;;4.70;;
22080;SDS011;11207;59.512;18.050;2022-12-07T11:49:47;4.93;;;4.47;;
22080;SDS011;11207;59.512;18.050;2022-12-07T11:52:37;5.47;;;4.97;;
22080;SDS011;11207;59.512;18.050;2022-12-07T11:55:31;7.37;;;4.50;;
22080;SDS011;11207;59.512;18.050;2022-12-07T11:58:04;5.27;;;4.53;;
22080;SDS011;11207;59.512;18.050;2022-12-07T12:00:54;5.97;;;4.67;;
22080;SDS011;11207;59.512;18.050;2022-12-07T12:03:33;7.67;;;4.83;;
22080;SDS011;11207;59.512;18.050;2022-12-07T12:06:02;4.90;;;4.50;;
22080;SDS011;11207;59.512;18.050;2022-12-07T12:08:29;5.47;;;4.30;;
22080;SDS011;11207;59.512;18.050;2022-12-07T12:19:37;8.03;;;4.63;;
22080;SDS011;11207;59.512;18.050;2022-12-07T12:22:26;5.67;;;4.50;;
22080;SDS011;11207;59.512;18.050;2022-12-07T12:25:06;5.30;;;4.80;;
22080;SDS011;11207;59.512;18.050;2022-12-07T12:27:41;5.00;;;4.50;;
22080;SDS011;11207;59.512;18.050;2022-12-07T12:30:30;9.17;;;5.17;;
22080;SDS011;11207;59.512;18.050;2022-12-07T12:38:49;4.77;;;4.37;;
22080;SDS011;11207;59.512;18.050;2022-12-07T12:44:00;6.20;;;4.40;;
22080;SDS011;11207;59.512;18.050;2022-12-07T12:51:49;9.77;;;4.77;;
22080;SDS011;11207;59.512;18.050;2022-12-07T12:54:22;5.50;;;4.63;;
22080;SDS011;11207;59.512;18.050;2022-12-07T12:59:28;5.40;;;4.90;;
22080;SDS011;11207;59.512;18.050;2022-12-07T13:02:15;5.10;;;4.60;;
22080;SDS011;11207;59.512;18.050;2022-12-07T13:20:40;5.93;;;4.47;;
22080;SDS011;11207;59.512;18.050;2022-12-07T13:23:06;6.63;;;4.37;;
22080;SDS011;11207;59.512;18.050;2022-12-07T13:25:36;4.80;;;4.37;;
22080;SDS011;11207;59.512;18.050;2022-12-07T13:28:17;5.00;;;4.43;;
22080;SDS011;11207;59.512;18.050;2022-12-07T13:30:50;4.83;;;4.40;;
22080;SDS011;11207;59.512;18.050;2022-12-07T13:33:23;4.60;;;4.20;;
22080;SDS011;11207;59.512;18.050;2022-12-07T13:35:53;5.73;;;4.60;;
22080;SDS011;11207;59.512;18.050;2022-12-07T13:38:24;4.97;;;4.47;;
22080;SDS011;11207;59.512;18.050;2022-12-07T13:41:10;4.70;;;4.10;;
22080;SDS011;11207;59.512;18.050;2022-12-07T13:44:05;4.90;;;4.50;;
22080;SDS011;11207;59.512;18.050;2022-12-07T13:46:36;5.43;;;4.10;;
22080;SDS011;11207;59.512;18.050;2022-12-07T13:49:26;8.00;;;4.83;;
22080;SDS011;11207;59.512;18.050;2022-12-07T13:51:53;4.43;;;4.10;;
22080;SDS011;11207;59.512;18.050;2022-12-07T13:54:20;5.30;;;4.57;;
22080;SDS011;11207;59.512;18.050;2022-12-07T13:56:50;4.40;;;4.10;;
22080;SDS011;11207;59.512;18.050;2022-12-07T13:59:18;4.80;;;4.40;;
22080;SDS011;11207;59.512;18.050;2022-12-07T14:01:47;6.97;;;4.33;;
22080;SDS011;11207;59.512;18.050;2022-12-07T14:04:24;4.33;;;4.03;;
22080;SDS011;11207;59.512;18.050;2022-12-07T14:06:59;5.30;;;4.33;;
22080;SDS011;11207;59.512;18.050;2022-12-07T14:09:27;4.93;;;4.17;;
22080;SDS011;11207;59.512;18.050;2022-12-07T14:11:55;4.40;;;4.10;;
22080;SDS011;11207;59.512;18.050;2022-12-07T14:14:29;4.60;;;4.20;;
22080;SDS011;11207;59.512;18.050;2022-12-07T14:16:58;5.33;;;4.73;;
22080;SDS011;11207;59.512;18.050;2022-12-07T14:19:46;5.83;;;4.50;;
22080;SDS011;11207;59.512;18.050;2022-12-07T14:27:57;4.87;;;4.37;;
22080;SDS011;11207;59.512;18.050;2022-12-07T14:30:27;5.40;;;4.23;;
22080;SDS011;11207;59.512;18.050;2022-12-07T14:32:56;6.57;;;4.70;;
22080;SDS011;11207;59.512;18.050;2022-12-07T14:35:25;6.83;;;4.53;;
22080;SDS011;11207;59.512;18.050;2022-12-07T14:37:51;7.63;;;4.20;;
22080;SDS011;11207;59.512;18.050;2022-12-07T14:40:21;6.70;;;4.80;;
22080;SDS011;11207;59.512;18.050;2022-12-07T14:42:50;5.00;;;4.50;;
22080;SDS011;11207;59.512;18.050;2022-12-07T14:45:37;7.23;;;3.90;;
22080;SDS011;11207;59.512;18.050;2022-12-07T14:48:04;5.00;;;4.53;;
22080;SDS011;11207;59.512;18.050;2022-12-07T14:50:30;6.07;;;4.10;;
22080;SDS011;11207;59.512;18.050;2022-12-07T14:53:03;5.77;;;4.40;;
22080;SDS011;11207;59.512;18.050;2022-12-07T14:55:34;5.73;;;4.73;;
22080;SDS011;11207;59.512;18.050;2022-12-07T14:58:00;5.93;;;4.67;;
22080;SDS011;11207;59.512;18.050;2022-12-07T15:00:26;4.93;;;4.43;;
22080;SDS011;11207;59.512;18.050;2022-12-07T15:02:53;4.70;;;4.30;;
22080;SDS011;11207;59.512;18.050;2022-12-07T15:05:20;6.20;;;4.40;;
22080;SDS011;11207;59.512;18.050;2022-12-07T15:07:46;5.90;;;4.20;;
22080;SDS011;11207;59.512;18.050;2022-12-07T15:10:20;5.17;;;4.47;;
22080;SDS011;11207;59.512;18.050;2022-12-07T15:12:48;4.63;;;4.23;;
22080;SDS011;11207;59.512;18.050;2022-12-07T15:15:14;6.20;;;4.57;;
22080;SDS011;11207;59.512;18.050;2022-12-07T15:17:40;4.90;;;4.50;;
22080;SDS011;11207;59.512;18.050;2022-12-07T15:20:07;5.07;;;4.50;;
22080;SDS011;11207;59.512;18.050;2022-12-07T15:22:41;5.63;;;4.73;;
22080;SDS011;11207;59.512;18.050;2022-12-07T15:25:06;4.93;;;4.53;;
22080;SDS011;11207;59.512;18.050;2022-12-07T15:27:33;6.17;;;4.60;;
22080;SDS011;11207;59.512;18.050;2022-12-07T15:29:59;5.03;;;4.40;;
22080;SDS011;11207;59.512;18.050;2022-12-07T15:32:24;5.00;;;4.60;;
22080;SDS011;11207;59.512;18.050;2022-12-07T15:34:53;9.10;;;5.07;;
22080;SDS011;11207;59.512;18.050;2022-12-07T15:37:19;6.53;;;5.10;;
22080;SDS011;11207;59.512;18.050;2022-12-07T15:39:44;5.67;;;5.00;;
22080;SDS011;11207;59.512;18.050;2022-12-07T15:42:10;7.07;;;5.33;;
22080;SDS011;11207;59.512;18.050;2022-12-07T15:44:36;5.87;;;5.07;;
22080;SDS011;11207;59.512;18.050;2022-12-07T15:47:20;7.00;;;5.30;;
22080;SDS011;11207;59.512;18.050;2022-12-07T15:49:45;6.13;;;5.20;;
22080;SDS011;11207;59.512;18.050;2022-12-07T15:52:11;5.97;;;5.03;;
22080;SDS011;11207;59.512;18.050;2022-12-07T15:54:37;5.17;;;4.67;;
22080;SDS011;11207;59.512;18.050;2022-12-07T15:57:03;5.60;;;4.83;;
22080;SDS011;11207;59.512;18.050;2022-12-07T15:59:29;7.27;;;4.73;;
22080;SDS011;11207;59.512;18.050;2022-12-07T16:01:55;5.10;;;4.60;;
22080;SDS011;11207;59.512;18.050;2022-12-07T16:04:21;6.00;;;5.00;;
22080;SDS011;11207;59.512;18.050;2022-12-07T16:06:46;6.20;;;5.13;;
22080;SDS011;11207;59.512;18.050;2022-12-07T16:09:12;7.03;;;5.33;;
22080;SDS011;11207;59.512;18.050;2022-12-07T16:11:38;7.40;;;5.17;;
22080;SDS011;11207;59.512;18.050;2022-12-07T16:14:04;8.57;;;5.50;;
22080;SDS011;11207;59.512;18.050;2022-12-07T16:16:29;6.83;;;5.50;;
22080;SDS011;11207;59.512;18.050;2022-12-07T16:18:55;5.93;;;4.73;;
22080;SDS011;11207;59.512;18.050;2022-12-07T16:21:22;7.13;;;5.50;;
22080;SDS011;11207;59.512;18.050;2022-12-07T16:23:47;10.33;;;5.90;;
22080;SDS011;11207;59.512;18.050;2022-12-07T16:26:14;6.57;;;5.83;;
22080;SDS011;11207;59.512;18.050;2022-12-07T16:28:42;6.87;;;5.53;;
22080;SDS011;11207;59.512;18.050;2022-12-07T16:31:13;8.33;;;5.23;;
22080;SDS011;11207;59.512;18.050;2022-12-07T16:33:40;8.87;;;5.80;;
22080;SDS011;11207;59.512;18.050;2022-12-07T16:36:08;6.43;;;5.50;;
22080;SDS011;11207;59.512;18.050;2022-12-07T16:38:35;9.87;;;5.77;;
22080;SDS011;11207;59.512;18.050;2022-12-07T16:41:01;5.73;;;5.20;;
22080;SDS011;11207;59.512;18.050;2022-12-07T16:43:28;9.23;;;5.87;;
22080;SDS011;11207;59.512;18.050;2022-12-07T16:45:54;7.03;;;5.53;;
22080;SDS011;11207;59.512;18.050;2022-12-07T16:48:19;11.20;;;5.53;;
22080;SDS011;11207;59.512;18.050;2022-12-07T16:50:46;5.87;;;5.27;;